Time;durP1;ratioP1;P1;durP2;ratioP2;P2;SDS_P1;SDS_P2;PMS_P1;PMS_P2;Temp;Humidity;BMP_temperature;BMP_pressure;BME280_temperature;BME280_humidity;BME280_pressure;Samples;Min_cycle;Max_cycle;Signal;HPM_P1;HPM_P2
2023/07/29 00:02:53;;;;;;;1.50;0.90;;;22.10;63.50;;;;;;6295011;28;20035;-64
2023/07/29 00:05:54;;;;;;;0.95;0.70;;;22.00;63.40;;;;;;6295208;28;20489;-64
2023/07/29 00:08:54;;;;;;;1.10;0.80;;;22.10;63.40;;;;;;6295098;28;20242;-64
2023/07/29 00:11:55;;;;;;;0.90;0.70;;;22.00;63.30;;;;;;6295216;28;20507;-64
2023/07/29 00:14:56;;;;;;;0.60;0.50;;;22.00;63.40;;;;;;6293602;28;20028;-64
2023/07/29 00:17:57;;;;;;;3.72;0.80;;;22.00;63.30;;;;;;6294951;28;20027;-65
2023/07/29 00:20:58;;;;;;;0.60;0.60;;;22.00;63.40;;;;;;6294781;28;20036;-65
2023/07/29 00:24:00;;;;;;;0.80;0.52;;;22.00;63.40;;;;;;6294668;28;20016;-64
2023/07/29 00:27:01;;;;;;;0.50;0.50;;;22.00;63.40;;;;;;6294509;28;20017;-65
2023/07/29 00:30:02;;;;;;;1.10;0.70;;;22.00;63.40;;;;;;6293571;28;20063;-65
2023/07/29 00:33:02;;;;;;;0.60;0.60;;;22.00;63.40;;;;;;6294292;28;20090;-65
2023/07/29 00:36:03;;;;;;;0.50;0.50;;;22.00;63.40;;;;;;6294571;28;20529;-65
2023/07/29 00:39:04;;;;;;;0.82;0.60;;;22.00;63.50;;;;;;6294507;28;20028;-65
2023/07/29 00:42:05;;;;;;;1.10;0.70;;;22.00;63.40;;;;;;6294481;28;20021;-64
2023/07/29 00:45:07;;;;;;;0.88;0.80;;;22.00;63.40;;;;;;6294168;28;20024;-65
2023/07/29 00:48:08;;;;;;;0.60;0.60;;;22.00;63.50;;;;;;6294528;28;20017;-63
2023/07/29 00:51:09;;;;;;;0.73;0.60;;;22.00;63.50;;;;;;6294442;28;20036;-65
2023/07/29 00:54:10;;;;;;;0.90;0.60;;;22.00;63.40;;;;;;6294554;28;20035;-64
2023/07/29 00:57:14;;;;;;;0.75;0.70;;;22.00;63.50;;;;;;6294080;28;20098;-65
2023/07/29 01:00:16;;;;;;;0.68;0.60;;;22.00;63.50;;;;;;6294224;28;20020;-65
2023/07/29 01:03:17;;;;;;;0.50;0.50;;;22.00;63.50;;;;;;6293747;28;20127;-65
2023/07/29 01:06:28;;;;;;;0.63;0.60;;;22.00;63.40;;;;;;6294074;28;20118;-65
2023/07/29 01:09:47;;;;;;;0.60;0.57;;;22.00;63.40;;;;;;6294199;28;20017;-65
2023/07/29 01:13:10;;;;;;;0.60;0.60;;;22.00;63.50;;;;;;6294165;28;20484;-65
2023/07/29 01:16:18;;;;;;;0.88;0.60;;;22.00;63.50;;;;;;6268949;28;20021;-63
2023/07/29 01:20:01;;;;;;;1.08;0.80;;;22.00;63.50;;;;;;6269330;28;20044;-64
2023/07/29 01:23:01;;;;;;;0.50;0.50;;;22.00;63.50;;;;;;6241110;28;20235;-64
2023/07/29 01:26:03;;;;;;;1.02;0.50;;;22.00;63.50;;;;;;6241006;28;20036;-64
2023/07/29 01:29:04;;;;;;;2.70;0.93;;;22.00;63.50;;;;;;6268432;28;20037;-65
2023/07/29 01:32:13;;;;;;;0.60;0.57;;;22.00;63.50;;;;;;6268854;28;20024;-64
2023/07/29 01:35:39;;;;;;;0.60;0.57;;;22.00;63.40;;;;;;6267436;28;20052;-65
2023/07/29 01:38:43;;;;;;;1.17;0.80;;;22.00;63.40;;;;;;6268773;28;20108;-64
2023/07/29 01:41:45;;;;;;;0.70;0.50;;;22.00;63.40;;;;;;6267492;28;20119;-65
2023/07/29 01:44:45;;;;;;;0.77;0.60;;;22.00;63.40;;;;;;6268795;28;20029;-64
2023/07/29 01:47:46;;;;;;;0.50;0.50;;;22.00;63.40;;;;;;6269013;28;20029;-64
2023/07/29 01:50:47;;;;;;;0.63;0.60;;;22.00;63.50;;;;;;6272147;28;20024;-64
2023/07/29 01:53:48;;;;;;;0.95;0.73;;;22.00;63.40;;;;;;6273753;28;20021;-65
2023/07/29 01:56:51;;;;;;;0.88;0.60;;;22.00;63.40;;;;;;6273454;28;20036;-65
2023/07/29 01:59:51;;;;;;;2.22;0.82;;;22.00;63.40;;;;;;6273645;28;20024;-65
2023/07/29 02:02:52;;;;;;;0.68;0.68;;;22.00;63.40;;;;;;6273174;28;20021;-64
2023/07/29 02:05:53;;;;;;;0.75;0.70;;;22.00;63.40;;;;;;6273225;28;20036;-65
2023/07/29 02:08:55;;;;;;;1.02;0.70;;;22.00;63.40;;;;;;6273092;28;20102;-64
2023/07/29 02:11:57;;;;;;;1.00;0.60;;;22.00;63.40;;;;;;6273149;28;20033;-65
2023/07/29 02:14:58;;;;;;;0.70;0.60;;;22.00;63.50;;;;;;6273126;28;20032;-65
2023/07/29 02:17:59;;;;;;;0.47;0.47;;;22.00;63.40;;;;;;6273019;28;20024;-65
2023/07/29 02:20:59;;;;;;;0.43;0.43;;;22.00;63.40;;;;;;6272873;28;20025;-65
2023/07/29 02:24:00;;;;;;;0.80;0.63;;;22.00;63.40;;;;;;6273137;28;20071;-64
2023/07/29 02:27:01;;;;;;;0.95;0.60;;;22.00;63.40;;;;;;6272788;28;20051;-64
2023/07/29 02:30:02;;;;;;;1.33;0.63;;;22.00;63.40;;;;;;6272933;28;20017;-64
2023/07/29 02:33:03;;;;;;;0.85;0.60;;;22.00;63.50;;;;;;6272515;28;20068;-64
2023/07/29 02:36:05;;;;;;;0.73;0.70;;;22.00;63.50;;;;;;6272539;28;20470;-65
2023/07/29 02:39:06;;;;;;;0.60;0.60;;;22.00;63.40;;;;;;6272316;28;20025;-64
2023/07/29 02:42:06;;;;;;;0.98;0.63;;;22.00;63.50;;;;;;6272428;28;20083;-65
2023/07/29 02:45:10;;;;;;;0.45;0.40;;;22.00;63.50;;;;;;6272424;28;20025;-65
2023/07/29 02:48:10;;;;;;;0.50;0.50;;;22.00;63.50;;;;;;6272345;28;20614;-65
2023/07/29 02:51:11;;;;;;;0.93;0.80;;;22.00;63.50;;;;;;6271771;28;20051;-65
2023/07/29 02:54:12;;;;;;;0.70;0.55;;;22.00;63.40;;;;;;6272402;28;20665;-65
2023/07/29 02:57:13;;;;;;;0.60;0.50;;;22.00;63.40;;;;;;6271939;28;20043;-64
2023/07/29 03:00:15;;;;;;;0.50;0.50;;;22.00;63.40;;;;;;6270790;28;20490;-65
2023/07/29 03:03:15;;;;;;;0.75;0.65;;;22.00;63.40;;;;;;6270678;28;20099;-64
2023/07/29 03:06:16;;;;;;;0.68;0.60;;;22.00;63.50;;;;;;6271814;28;20029;-64
2023/07/29 03:09:17;;;;;;;0.50;0.50;;;22.00;63.40;;;;;;6271723;28;20032;-65
2023/07/29 03:12:18;;;;;;;0.50;0.50;;;22.00;63.40;;;;;;6271785;28;20083;-64
2023/07/29 03:15:18;;;;;;;0.70;0.60;;;22.00;63.40;;;;;;6271678;28;20029;-64
2023/07/29 03:18:19;;;;;;;0.40;0.40;;;22.00;63.50;;;;;;6271753;28;20044;-64
2023/07/29 03:21:20;;;;;;;0.98;0.60;;;22.00;63.40;;;;;;6271583;28;20677;-65
2023/07/29 03:24:20;;;;;;;0.77;0.57;;;22.00;63.50;;;;;;6271775;28;20424;-64
2023/07/29 03:27:21;;;;;;;0.70;0.70;;;22.00;63.40;;;;;;6270097;28;20583;-65
2023/07/29 03:30:22;;;;;;;0.60;0.57;;;22.00;63.40;;;;;;6271232;28;20406;-64
2023/07/29 03:33:23;;;;;;;0.73;0.60;;;22.00;63.50;;;;;;6271107;28;20053;-65
2023/07/29 03:36:25;;;;;;;0.50;0.50;;;22.00;63.40;;;;;;6271090;28;20106;-65
2023/07/29 03:39:26;;;;;;;0.47;0.47;;;22.00;63.40;;;;;;6271140;28;20025;-65
2023/07/29 03:42:26;;;;;;;0.50;0.47;;;22.00;63.40;;;;;;6270717;28;20028;-64
2023/07/29 03:45:27;;;;;;;0.93;0.70;;;22.00;63.40;;;;;;6270965;28;20098;-65
2023/07/29 03:48:28;;;;;;;1.10;0.77;;;22.00;63.40;;;;;;6270872;28;20100;-64
2023/07/29 03:51:29;;;;;;;0.80;0.70;;;22.00;63.40;;;;;;6269540;28;20440;-65
2023/07/29 03:54:29;;;;;;;0.80;0.57;;;22.00;63.40;;;;;;6270545;28;20029;-65
2023/07/29 03:57:30;;;;;;;0.90;0.80;;;22.00;63.40;;;;;;6270716;28;20378;-64
2023/07/29 04:00:37;;;;;;;0.85;0.63;;;22.00;63.40;;;;;;6270262;28;20538;-64
2023/07/29 04:03:37;;;;;;;0.68;0.60;;;22.00;63.40;;;;;;6270454;28;20082;-65
2023/07/29 04:06:38;;;;;;;0.70;0.60;;;22.00;63.50;;;;;;6270478;28;20017;-65
2023/07/29 04:09:39;;;;;;;0.90;0.70;;;22.00;63.40;;;;;;6270456;28;20035;-64
2023/07/29 04:12:40;;;;;;;0.98;0.70;;;22.00;63.50;;;;;;6269756;28;20645;-65
2023/07/29 04:15:40;;;;;;;0.90;0.50;;;22.00;63.50;;;;;;6286844;28;20020;-64
2023/07/29 04:18:41;;;;;;;0.80;0.70;;;22.00;63.50;;;;;;6295002;28;20024;-65
2023/07/29 04:21:42;;;;;;;0.73;0.70;;;22.00;63.50;;;;;;6295023;28;20036;-64
2023/07/29 04:24:43;;;;;;;1.08;0.70;;;22.00;63.50;;;;;;6294785;28;20017;-64
2023/07/29 04:27:43;;;;;;;1.30;0.52;;;22.00;63.40;;;;;;6294831;28;20023;-64
2023/07/29 04:30:44;;;;;;;0.98;0.80;;;22.00;63.50;;;;;;6294663;28;20028;-64
2023/07/29 04:33:45;;;;;;;0.73;0.50;;;22.00;63.40;;;;;;6294389;28;20052;-65
2023/07/29 04:36:46;;;;;;;0.63;0.60;;;22.00;63.50;;;;;;6294458;28;20032;-65
2023/07/29 04:39:47;;;;;;;0.70;0.60;;;22.00;63.50;;;;;;6294759;28;20032;-65
2023/07/29 04:42:48;;;;;;;0.70;0.70;;;22.00;63.50;;;;;;6294288;28;20684;-64
2023/07/29 04:45:49;;;;;;;0.80;0.73;;;22.00;63.50;;;;;;6294306;28;20389;-65
2023/07/29 04:48:49;;;;;;;0.75;0.63;;;22.00;63.50;;;;;;6294277;28;20509;-64
2023/07/29 04:51:50;;;;;;;0.57;0.57;;;22.00;63.50;;;;;;6294461;28;20031;-64
2023/07/29 04:54:51;;;;;;;0.68;0.68;;;22.00;63.40;;;;;;6294067;28;20020;-65
2023/07/29 04:57:51;;;;;;;0.73;0.68;;;22.00;63.50;;;;;;6292836;28;20025;-64
2023/07/29 05:00:52;;;;;;;0.68;0.60;;;22.00;63.50;;;;;;6294080;28;20028;-65
2023/07/29 05:03:53;;;;;;;1.20;0.80;;;22.00;63.50;;;;;;6294313;28;20025;-64
2023/07/29 05:06:54;;;;;;;0.63;0.63;;;22.00;63.50;;;;;;6293968;28;20480;-65
2023/07/29 05:09:54;;;;;;;0.65;0.60;;;22.00;63.40;;;;;;6294336;28;20070;-64
2023/07/29 05:12:55;;;;;;;0.68;0.55;;;22.00;63.50;;;;;;6293991;28;20086;-64
2023/07/29 05:15:56;;;;;;;1.05;0.60;;;22.00;63.50;;;;;;6294091;28;20378;-64
2023/07/29 05:18:56;;;;;;;0.90;0.70;;;22.00;63.50;;;;;;6293153;28;20436;-64
2023/07/29 05:21:57;;;;;;;0.80;0.75;;;22.00;63.50;;;;;;6294026;28;20537;-65
2023/07/29 05:24:58;;;;;;;0.70;0.70;;;22.00;63.40;;;;;;6298072;28;20020;-64
2023/07/29 05:27:59;;;;;;;0.60;0.50;;;22.00;63.40;;;;;;6297522;28;20488;-64
2023/07/29 05:31:01;;;;;;;0.40;0.40;;;22.00;63.50;;;;;;6297500;28;20082;-64
2023/07/29 05:34:02;;;;;;;0.50;0.50;;;22.00;63.40;;;;;;6297138;28;20379;-65
2023/07/29 05:37:03;;;;;;;0.60;0.50;;;22.00;63.50;;;;;;6298710;28;20021;-64
2023/07/29 05:40:04;;;;;;;0.60;0.60;;;22.00;63.40;;;;;;6298867;28;20024;-64
2023/07/29 05:43:05;;;;;;;1.02;0.80;;;22.00;63.40;;;;;;6298618;28;20039;-64
2023/07/29 05:46:06;;;;;;;0.50;0.50;;;22.00;63.50;;;;;;6298226;28;20044;-63
2023/07/29 05:49:07;;;;;;;0.70;0.60;;;22.00;63.50;;;;;;6297346;28;20124;-65
2023/07/29 05:52:07;;;;;;;0.60;0.60;;;22.00;63.50;;;;;;6298660;28;20020;-65
2023/07/29 05:55:09;;;;;;;0.70;0.60;;;22.00;63.50;;;;;;6297368;28;20061;-63
2023/07/29 05:58:09;;;;;;;0.88;0.70;;;22.00;63.50;;;;;;6298363;28;20362;-64
2023/07/29 06:01:10;;;;;;;0.80;0.70;;;22.00;63.40;;;;;;6298286;28;20024;-65
2023/07/29 06:04:11;;;;;;;1.13;0.70;;;22.00;63.50;;;;;;6298102;28;20039;-64
2023/07/29 06:07:12;;;;;;;1.48;0.60;;;22.00;63.50;;;;;;6298104;28;20020;-63
2023/07/29 06:10:17;;;;;;;0.70;0.57;;;22.00;63.40;;;;;;6296812;28;20086;-64
2023/07/29 06:13:18;;;;;;;0.63;0.60;;;22.00;63.40;;;;;;6296920;28;20393;-64
2023/07/29 06:16:18;;;;;;;0.43;0.43;;;22.00;63.50;;;;;;6297735;28;20031;-64
2023/07/29 06:19:20;;;;;;;0.60;0.60;;;22.00;63.40;;;;;;6297927;28;20109;-64
2023/07/29 06:22:21;;;;;;;0.65;0.60;;;22.00;63.40;;;;;;6297533;28;20470;-65
2023/07/29 06:25:22;;;;;;;0.70;0.60;;;22.00;63.40;;;;;;6297580;28;20029;-64
2023/07/29 06:28:23;;;;;;;0.63;0.52;;;22.00;63.40;;;;;;6297479;28;20031;-65
2023/07/29 06:31:24;;;;;;;0.60;0.60;;;22.00;63.50;;;;;;6297848;28;20028;-64
2023/07/29 06:34:25;;;;;;;0.50;0.50;;;22.00;63.40;;;;;;6296909;28;20123;-64
2023/07/29 06:37:26;;;;;;;0.70;0.70;;;22.00;63.40;;;;;;6297410;28;20077;-64
2023/07/29 06:40:26;;;;;;;0.57;0.57;;;22.00;63.40;;;;;;6297051;28;20477;-64
2023/07/29 06:43:27;;;;;;;0.60;0.60;;;22.00;63.40;;;;;;6297250;28;20112;-64
2023/07/29 06:46:28;;;;;;;0.68;0.68;;;22.00;63.40;;;;;;6295931;28;20044;-65
2023/07/29 06:49:28;;;;;;;0.60;0.60;;;22.00;63.40;;;;;;6297253;28;20503;-64
2023/07/29 06:52:29;;;;;;;0.82;0.60;;;22.00;63.40;;;;;;6296802;28;20052;-65
2023/07/29 06:55:30;;;;;;;0.60;0.60;;;22.00;63.40;;;;;;6297009;28;20024;-64
2023/07/29 06:58:31;;;;;;;0.50;0.45;;;22.00;63.40;;;;;;6296904;28;20031;-63
2023/07/29 07:01:32;;;;;;;0.40;0.40;;;22.00;63.40;;;;;;6296852;28;20412;-64
2023/07/29 07:04:32;;;;;;;0.80;0.70;;;22.00;63.40;;;;;;6295652;28;20120;-64
2023/07/29 07:07:33;;;;;;;0.60;0.60;;;22.00;63.50;;;;;;6296552;28;20496;-64
2023/07/29 07:10:34;;;;;;;0.40;0.40;;;22.00;63.40;;;;;;6296849;28;20029;-64
2023/07/29 07:13:35;;;;;;;0.60;0.60;;;22.00;63.50;;;;;;6296479;28;20503;-63
2023/07/29 07:16:36;;;;;;;0.60;0.60;;;22.00;63.40;;;;;;6296521;28;20024;-65
2023/07/29 07:19:37;;;;;;;0.50;0.50;;;22.00;63.40;;;;;;6296434;28;20036;-64
2023/07/29 07:22:39;;;;;;;0.60;0.50;;;22.00;63.40;;;;;;6296120;28;20023;-64
2023/07/29 07:25:39;;;;;;;0.70;0.60;;;22.00;63.40;;;;;;6296043;28;20035;-65
2023/07/29 07:28:40;;;;;;;0.50;0.50;;;22.00;63.40;;;;;;6296089;28;20058;-65
2023/07/29 07:31:41;;;;;;;0.60;0.60;;;22.00;63.40;;;;;;6294770;28;20032;-65
2023/07/29 07:34:41;;;;;;;0.60;0.60;;;22.00;63.40;;;;;;6296069;28;20044;-64
2023/07/29 07:37:42;;;;;;;0.50;0.50;;;22.00;63.40;;;;;;6295725;28;20244;-64
2023/07/29 07:40:51;;;;;;;0.60;0.55;;;22.00;63.50;;;;;;6295818;28;20575;-65
2023/07/29 07:43:52;;;;;;;0.68;0.55;;;22.00;63.60;;;;;;6295662;28;20433;-64
2023/07/29 07:46:53;;;;;;;1.20;0.70;;;22.00;63.50;;;;;;6294975;28;20036;-64
2023/07/29 07:49:54;;;;;;;0.80;0.70;;;22.00;63.50;;;;;;6295498;28;20021;-64
2023/07/29 07:52:55;;;;;;;1.08;0.82;;;22.00;63.50;;;;;;6294547;28;20051;-64
2023/07/29 07:55:55;;;;;;;0.70;0.60;;;22.00;63.50;;;;;;6295315;28;20631;-64
2023/07/29 07:58:56;;;;;;;1.23;0.70;;;22.00;63.50;;;;;;6295408;28;20392;-64
2023/07/29 08:01:57;;;;;;;0.70;0.60;;;22.00;63.50;;;;;;6295052;28;20031;-64
2023/07/29 08:04:57;;;;;;;0.73;0.60;;;22.00;63.50;;;;;;6295376;28;20490;-64
2023/07/29 08:07:58;;;;;;;0.60;0.60;;;22.00;63.50;;;;;;6295051;28;20480;-65
2023/07/29 08:10:59;;;;;;;0.45;0.45;;;22.00;64.40;;;;;;6295355;28;20032;-65
2023/07/29 08:13:59;;;;;;;0.85;0.60;;;22.00;63.50;;;;;;6295367;28;20411;-65
2023/07/29 08:17:01;;;;;;;1.13;0.60;;;22.00;63.50;;;;;;6295046;28;20017;-65
2023/07/29 08:20:02;;;;;;;0.50;0.47;;;22.00;63.50;;;;;;6294748;28;20473;-64
2023/07/29 08:23:04;;;;;;;0.60;0.60;;;22.00;63.50;;;;;;6294922;28;20067;-64
2023/07/29 08:26:05;;;;;;;0.70;0.60;;;22.00;63.50;;;;;;6293494;28;20480;-65
2023/07/29 08:29:06;;;;;;;0.93;0.75;;;22.00;63.50;;;;;;6294761;28;20472;-65
2023/07/29 08:32:08;;;;;;;0.65;0.50;;;22.00;63.50;;;;;;6294413;28;20021;-64
2023/07/29 08:35:08;;;;;;;0.70;0.70;;;22.00;63.50;;;;;;6294292;28;20041;-64
2023/07/29 08:38:09;;;;;;;0.90;0.60;;;22.00;63.60;;;;;;6294709;28;20056;-64
2023/07/29 08:41:14;;;;;;;0.63;0.60;;;22.00;63.70;;;;;;6294716;28;20024;-64
2023/07/29 08:44:23;;;;;;;0.77;0.70;;;22.00;63.70;;;;;;6294450;28;20046;-64
2023/07/29 08:47:24;;;;;;;0.77;0.70;;;22.00;63.60;;;;;;6294255;28;20039;-65
2023/07/29 08:50:25;;;;;;;0.95;0.68;;;22.00;64.50;;;;;;6294355;28;20020;-65
2023/07/29 08:53:27;;;;;;;0.65;0.57;;;22.00;63.60;;;;;;6294172;28;20031;-64
2023/07/29 08:56:30;;;;;;;0.75;0.60;;;22.00;63.60;;;;;;6294760;28;20021;-65
2023/07/29 08:59:31;;;;;;;0.63;0.60;;;22.00;63.60;;;;;;6294224;28;20020;-64
2023/07/29 09:02:32;;;;;;;0.63;0.55;;;22.00;63.50;;;;;;6294131;28;20521;-65
2023/07/29 09:05:35;;;;;;;0.82;0.60;;;22.00;63.50;;;;;;6293835;28;20016;-64
2023/07/29 09:08:36;;;;;;;0.50;0.40;;;22.00;63.50;;;;;;6294019;28;20028;-65
2023/07/29 09:11:37;;;;;;;0.98;0.70;;;22.00;63.50;;;;;;6293948;28;20058;-64
2023/07/29 09:14:38;;;;;;;0.68;0.60;;;22.00;63.50;;;;;;6294121;28;20054;-64
2023/07/29 09:17:40;;;;;;;0.50;0.40;;;22.00;63.60;;;;;;6293736;28;20070;-64
2023/07/29 09:20:41;;;;;;;0.80;0.60;;;22.00;63.60;;;;;;6293767;28;20060;-63
2023/07/29 09:23:43;;;;;;;0.50;0.50;;;22.00;63.60;;;;;;6293624;28;20031;-65
2023/07/29 09:26:54;;;;;;;0.77;0.55;;;22.00;63.60;;;;;;6292490;28;20024;-65
2023/07/29 09:29:56;;;;;;;1.05;0.73;;;22.00;63.60;;;;;;6294125;28;20073;-65
2023/07/29 09:32:57;;;;;;;0.60;0.50;;;22.00;63.50;;;;;;6293697;28;20124;-64
2023/07/29 09:35:58;;;;;;;0.60;0.60;;;22.00;63.50;;;;;;6293492;28;20048;-64
2023/07/29 09:38:59;;;;;;;0.73;0.70;;;22.00;63.50;;;;;;6293670;28;20029;-64
2023/07/29 09:42:00;;;;;;;0.60;0.60;;;22.00;63.50;;;;;;6293506;28;20039;-65
2023/07/29 09:45:00;;;;;;;0.98;0.60;;;22.00;63.50;;;;;;6291942;28;20021;-64
2023/07/29 09:48:02;;;;;;;0.70;0.60;;;22.00;63.50;;;;;;6292226;28;20035;-65
2023/07/29 09:51:14;;;;;;;0.50;0.50;;;22.00;63.50;;;;;;6291941;28;20025;-65
2023/07/29 09:54:16;;;;;;;0.40;0.40;;;22.00;63.50;;;;;;6293094;28;20385;-64
2023/07/29 09:57:18;;;;;;;0.60;0.60;;;22.00;63.50;;;;;;6291420;28;20017;-65
2023/07/29 10:00:19;;;;;;;0.40;0.40;;;22.00;63.50;;;;;;6293416;28;20497;-65
2023/07/29 10:03:21;;;;;;;0.85;0.60;;;22.00;63.50;;;;;;6292780;28;20020;-64
2023/07/29 10:06:23;;;;;;;0.70;0.60;;;22.00;63.50;;;;;;6281868;28;20390;-64
2023/07/29 10:09:25;;;;;;;0.55;0.40;;;22.00;63.50;;;;;;6293035;28;20444;-64
2023/07/29 10:12:27;;;;;;;0.60;0.50;;;21.90;63.40;;;;;;6287981;28;20455;-64
2023/07/29 10:15:29;;;;;;;0.57;0.50;;;22.00;63.40;;;;;;6294082;28;20226;-63
2023/07/29 10:18:31;;;;;;;0.57;0.57;;;22.00;63.50;;;;;;6295115;28;20495;-64
2023/07/29 10:21:33;;;;;;;0.43;0.43;;;22.00;63.50;;;;;;6273977;28;20074;-63
2023/07/29 10:24:35;;;;;;;0.60;0.60;;;22.00;63.40;;;;;;6290069;28;20123;-64
2023/07/29 10:27:49;;;;;;;0.70;0.52;;;22.00;63.40;;;;;;6299847;28;20121;-64
2023/07/29 10:30:51;;;;;;;0.70;0.50;;;22.00;64.30;;;;;;6297162;28;20028;-65
2023/07/29 10:33:52;;;;;;;0.40;0.40;;;22.00;63.40;;;;;;6296367;28;20109;-66
2023/07/29 10:36:54;;;;;;;0.40;0.40;;;22.00;63.40;;;;;;6292407;28;20028;-65
2023/07/29 10:39:55;;;;;;;0.50;0.50;;;22.00;63.50;;;;;;6294578;28;20055;-66
2023/07/29 10:43:02;;;;;;;0.63;0.55;;;22.00;63.50;;;;;;6294173;28;20024;-66
2023/07/29 10:46:17;;;;;;;0.60;0.40;;;22.00;63.60;;;;;;6293357;28;20044;-66
2023/07/29 10:49:23;;;;;;;0.50;0.50;;;22.00;63.70;;;;;;6286318;28;20023;-67
2023/07/29 10:52:36;;;;;;;0.52;0.50;;;22.00;63.60;;;;;;6294038;28;20032;-66
2023/07/29 10:55:37;;;;;;;0.50;0.40;;;22.00;63.60;;;;;;6293745;28;20032;-66
2023/07/29 10:58:38;;;;;;;0.50;0.50;;;22.00;63.70;;;;;;6293086;28;20020;-66
2023/07/29 11:01:42;;;;;;;0.50;0.50;;;22.00;63.80;;;;;;6278941;28;20021;-67
2023/07/29 11:04:47;;;;;;;0.60;0.50;;;22.00;64.10;;;;;;6293911;28;20025;-66
2023/07/29 11:07:48;;;;;;;0.50;0.50;;;22.00;63.50;;;;;;6293484;28;20021;-67
2023/07/29 11:10:59;;;;;;;0.50;0.50;;;22.00;63.50;;;;;;6294019;28;20104;-66
2023/07/29 11:14:01;;;;;;;0.50;0.47;;;22.00;63.50;;;;;;6293227;28;20024;-66
2023/07/29 11:17:04;;;;;;;0.60;0.50;;;22.00;63.50;;;;;;6293162;28;20542;-66
2023/07/29 11:20:07;;;;;;;0.45;0.45;;;22.00;63.60;;;;;;6285969;28;20027;-66
2023/07/29 11:23:07;;;;;;;0.40;0.40;;;22.00;63.50;;;;;;6289302;28;20059;-66
2023/07/29 11:26:08;;;;;;;0.55;0.50;;;22.00;63.50;;;;;;6292787;28;21560;-64
2023/07/29 11:29:09;;;;;;;1.75;0.45;;;22.00;63.70;;;;;;6293408;28;20017;-66
2023/07/29 11:32:10;;;;;;;0.60;0.60;;;21.90;64.40;;;;;;6292971;28;20036;-65
2023/07/29 11:35:14;;;;;;;0.45;0.45;;;22.00;63.60;;;;;;6292598;28;20525;-66
2023/07/29 11:38:16;;;;;;;0.80;0.40;;;22.00;63.70;;;;;;6292574;28;20444;-67
2023/07/29 11:41:20;;;;;;;0.70;0.50;;;22.00;63.60;;;;;;6292871;28;20044;-66
2023/07/29 11:44:21;;;;;;;0.95;0.45;;;22.00;63.70;;;;;;6292781;28;20469;-67
2023/07/29 11:47:22;;;;;;;0.50;0.50;;;22.00;63.60;;;;;;6291868;28;20078;-66
2023/07/29 11:50:23;;;;;;;0.30;0.30;;;22.00;63.60;;;;;;6293272;28;20737;-66
2023/07/29 11:53:30;;;;;;;0.73;0.55;;;22.00;63.70;;;;;;6292357;28;20079;-67
2023/07/29 11:56:32;;;;;;;0.60;0.47;;;22.00;63.60;;;;;;6291824;28;20021;-66
2023/07/29 11:59:34;;;;;;;0.50;0.45;;;22.00;63.60;;;;;;6274470;28;20034;-66
2023/07/29 12:02:40;;;;;;;0.70;0.50;;;22.00;63.70;;;;;;6291204;28;20548;-66
2023/07/29 12:05:41;;;;;;;0.40;0.40;;;22.00;63.70;;;;;;6291473;28;20103;-66
2023/07/29 12:08:43;;;;;;;0.30;0.30;;;22.00;63.70;;;;;;6292108;28;20065;-66
2023/07/29 12:11:44;;;;;;;1.08;0.40;;;22.00;63.70;;;;;;6291743;28;20025;-67
2023/07/29 12:14:48;;;;;;;0.47;0.47;;;22.00;63.70;;;;;;6288800;28;20036;-66
2023/07/29 12:17:54;;;;;;;0.40;0.40;;;22.00;63.70;;;;;;6263688;28;20882;-66
2023/07/29 12:20:56;;;;;;;0.45;0.40;;;22.00;63.70;;;;;;6284361;28;20448;-67
2023/07/29 12:23:57;;;;;;;0.85;0.70;;;22.00;63.70;;;;;;6283526;28;20036;-67
2023/07/29 12:26:58;;;;;;;0.50;0.50;;;22.00;63.70;;;;;;6290091;28;20016;-67
2023/07/29 12:30:03;;;;;;;0.70;0.63;;;22.00;63.70;;;;;;6277298;28;20029;-66
2023/07/29 12:33:06;;;;;;;;;;;22.00;63.70;;;;;;6289706;28;20131;-66
2023/07/29 12:36:06;;;;;;;0.50;0.50;;;22.00;63.70;;;;;;6273677;28;19919;-67
2023/07/29 12:39:36;;;;;;;0.50;0.50;;;22.00;63.70;;;;;;6290737;28;20040;-65
2023/07/29 12:42:37;;;;;;;0.40;0.40;;;22.00;63.60;;;;;;6271609;28;20029;-66
2023/07/29 12:45:39;;;;;;;0.47;0.47;;;22.00;63.70;;;;;;6290648;28;20678;-66
2023/07/29 12:48:40;;;;;;;0.50;0.50;;;22.00;63.70;;;;;;6291288;28;20416;-66
2023/07/29 12:51:41;;;;;;;0.95;0.50;;;22.00;63.60;;;;;;6290831;28;20033;-66
2023/07/29 12:54:44;;;;;;;0.40;0.38;;;22.00;63.70;;;;;;6275003;28;20028;-67
2023/07/29 12:57:44;;;;;;;0.50;0.50;;;22.00;63.60;;;;;;6290968;28;20024;-66
2023/07/29 13:00:45;;;;;;;0.30;0.30;;;21.90;63.50;;;;;;6290442;28;20025;-66
2023/07/29 13:03:47;;;;;;;0.65;0.40;;;22.00;63.60;;;;;;6291105;28;20032;-66
2023/07/29 13:06:48;;;;;;;0.50;0.47;;;21.90;63.50;;;;;;6272862;28;20016;-66
2023/07/29 13:09:49;;;;;;;0.30;0.30;;;22.00;63.60;;;;;;6289307;28;20042;-67
2023/07/29 13:12:50;;;;;;;0.60;0.52;;;22.00;63.60;;;;;;6290920;28;20025;-67
2023/07/29 13:15:50;;;;;;;0.57;0.55;;;22.00;63.60;;;;;;6290904;28;20029;-67
2023/07/29 13:18:51;;;;;;;2.88;0.50;;;22.00;63.70;;;;;;6290568;28;20132;-67
2023/07/29 13:21:52;;;;;;;0.43;0.43;;;22.00;63.70;;;;;;6290920;28;20055;-66
2023/07/29 13:24:52;;;;;;;1.15;0.55;;;22.00;63.70;;;;;;6289680;28;20501;-66
2023/07/29 13:27:53;;;;;;;0.90;0.45;;;22.00;63.70;;;;;;6272762;28;21081;-67
2023/07/29 13:30:54;;;;;;;2.53;0.60;;;22.00;63.60;;;;;;6278923;28;20024;-65
2023/07/29 13:33:55;;;;;;;2.67;0.70;;;22.00;63.60;;;;;;6289057;28;20527;-66
2023/07/29 13:36:55;;;;;;;0.45;0.40;;;22.00;63.50;;;;;;6289799;28;20049;-66
2023/07/29 13:39:56;;;;;;;1.55;0.40;;;22.00;63.50;;;;;;6280113;28;20540;-66
2023/07/29 13:42:57;;;;;;;0.50;0.43;;;22.00;63.60;;;;;;6289663;28;20060;-66
2023/07/29 13:45:58;;;;;;;1.85;0.50;;;22.00;63.50;;;;;;6293272;28;20028;-66
2023/07/29 13:48:58;;;;;;;0.65;0.60;;;22.00;63.50;;;;;;6295192;28;20063;-65
2023/07/29 13:51:59;;;;;;;1.00;0.63;;;22.00;63.50;;;;;;6294908;28;20461;-67
2023/07/29 13:55:00;;;;;;;0.57;0.40;;;22.00;63.50;;;;;;6294755;28;20016;-67
2023/07/29 13:58:01;;;;;;;1.02;0.50;;;22.00;63.50;;;;;;6294669;28;20397;-65
2023/07/29 14:01:02;;;;;;;1.35;0.35;;;22.00;63.50;;;;;;6283787;28;20055;-66
2023/07/29 14:04:02;;;;;;;0.32;0.32;;;22.00;63.50;;;;;;6295584;28;20040;-66
2023/07/29 14:07:03;;;;;;;0.63;0.40;;;22.00;63.50;;;;;;6294163;28;20515;-66
2023/07/29 14:10:04;;;;;;;0.60;0.50;;;22.00;63.50;;;;;;6294940;28;20095;-66
2023/07/29 14:13:05;;;;;;;0.45;0.40;;;22.00;63.50;;;;;;6294465;28;20036;-66
2023/07/29 14:16:06;;;;;;;0.75;0.40;;;22.00;63.50;;;;;;6293632;28;20056;-66
2023/07/29 14:19:07;;;;;;;1.20;0.40;;;22.00;63.50;;;;;;6294757;28;20042;-66
2023/07/29 14:22:07;;;;;;;0.90;0.70;;;22.00;63.50;;;;;;6294323;28;20027;-67
2023/07/29 14:25:08;;;;;;;1.15;0.50;;;22.00;63.70;;;;;;6294881;28;20056;-68
2023/07/29 14:28:09;;;;;;;0.70;0.43;;;22.00;63.70;;;;;;6294648;28;20032;-67
2023/07/29 14:31:10;;;;;;;0.32;0.32;;;22.00;63.50;;;;;;6295087;28;20024;-67
2023/07/29 14:34:11;;;;;;;1.65;0.40;;;22.00;63.50;;;;;;6294804;28;20048;-66
2023/07/29 14:37:11;;;;;;;0.50;0.50;;;22.00;63.70;;;;;;6294178;28;20174;-69
2023/07/29 14:40:12;;;;;;;0.90;0.40;;;22.00;63.50;;;;;;6293852;28;20111;-67
2023/07/29 14:43:13;;;;;;;0.50;0.40;;;22.00;63.50;;;;;;6294886;28;20082;-67
2023/07/29 14:46:13;;;;;;;0.65;0.60;;;22.00;63.50;;;;;;6294105;28;20028;-68
2023/07/29 14:49:14;;;;;;;0.60;0.50;;;22.00;63.50;;;;;;6295074;28;20103;-67
2023/07/29 14:52:15;;;;;;;1.05;0.70;;;22.00;63.60;;;;;;6294797;28;20031;-67
2023/07/29 14:55:16;;;;;;;0.50;0.38;;;22.00;63.50;;;;;;6294100;28;20036;-68
2023/07/29 14:58:17;;;;;;;0.45;0.40;;;22.00;63.50;;;;;;6294606;28;20031;-67
2023/07/29 15:01:18;;;;;;;0.57;0.50;;;22.00;63.50;;;;;;6288293;28;20029;-67
2023/07/29 15:04:19;;;;;;;0.50;0.40;;;22.00;63.50;;;;;;6294455;28;20033;-67
2023/07/29 15:07:20;;;;;;;0.70;0.50;;;22.00;63.50;;;;;;6293536;28;20025;-68
2023/07/29 15:10:21;;;;;;;0.85;0.47;;;22.00;63.60;;;;;;6294375;28;20065;-69
2023/07/29 15:13:21;;;;;;;0.40;0.40;;;22.00;63.50;;;;;;6294108;28;20488;-68
2023/07/29 15:16:24;;;;;;;0.50;0.30;;;22.00;63.50;;;;;;6293600;28;20103;-67
2023/07/29 15:19:24;;;;;;;0.40;0.38;;;22.00;63.50;;;;;;6293392;28;20616;-67
2023/07/29 15:22:25;;;;;;;0.88;0.45;;;22.00;63.60;;;;;;6294005;28;20051;-69
2023/07/29 15:25:26;;;;;;;0.45;0.45;;;22.00;63.50;;;;;;6293672;28;20025;-67
2023/07/29 15:28:26;;;;;;;0.90;0.50;;;22.00;63.60;;;;;;6293844;28;20123;-67
2023/07/29 15:31:27;;;;;;;0.47;0.40;;;22.00;63.50;;;;;;6293818;28;20024;-69
2023/07/29 15:34:31;;;;;;;0.65;0.40;;;22.00;63.50;;;;;;6293703;28;20072;-67
2023/07/29 15:37:32;;;;;;;0.60;0.50;;;22.00;63.60;;;;;;6293016;28;20073;-66
2023/07/29 15:40:33;;;;;;;1.85;0.50;;;22.00;63.60;;;;;;6293791;28;20032;-67
2023/07/29 15:43:33;;;;;;;0.93;0.50;;;22.00;63.60;;;;;;6291738;28;20796;-67
2023/07/29 15:46:34;;;;;;;0.30;0.30;;;22.00;63.60;;;;;;6292891;28;20452;-67
2023/07/29 15:49:35;;;;;;;0.38;0.38;;;22.00;63.70;;;;;;6293496;28;20027;-66